createdAt,value
2023-02-24T00:01:51.267Z,12.95
2023-02-24T00:04:40.176Z,12.35
2023-02-24T00:07:24.878Z,6.55
2023-02-24T00:10:10.998Z,13.35
2023-02-24T00:12:56.131Z,12.57
2023-02-24T00:15:41.055Z,10.90
2023-02-24T00:18:25.989Z,14.70
2023-02-24T00:21:15.145Z,6.50
2023-02-24T00:23:59.855Z,10.45
2023-02-24T00:26:45.811Z,10.80
2023-02-24T00:29:32.333Z,17.05
2023-02-24T00:32:17.601Z,17.63
2023-02-24T00:35:03.176Z,7.57
2023-02-24T00:37:51.144Z,14.98
2023-02-24T00:40:37.131Z,12.40
2023-02-24T00:43:22.291Z,15.70
2023-02-24T00:46:11.299Z,9.80
2023-02-24T00:48:57.289Z,13.10
2023-02-24T00:51:45.292Z,8.63
2023-02-24T00:54:30.858Z,12.65
2023-02-24T00:57:18.291Z,12.32
2023-02-24T01:00:10.826Z,10.48
2023-02-24T01:02:59.229Z,8.05
2023-02-24T01:05:44.621Z,11.00
2023-02-24T01:08:29.617Z,10.77
2023-02-24T01:11:35.253Z,7.47
2023-02-24T01:14:24.556Z,6.03
2023-02-24T01:17:09.940Z,13.38
2023-02-24T01:19:55.021Z,8.07
2023-02-24T01:22:40.119Z,7.53
2023-02-24T01:25:25.016Z,11.23
2023-02-24T01:28:11.002Z,13.57
2023-02-24T01:31:01.760Z,9.68
2023-02-24T01:33:47.683Z,7.82
2023-02-24T01:36:34.621Z,13.25
2023-02-24T01:39:20.615Z,11.00
2023-02-24T01:42:06.654Z,5.55
2023-02-24T01:44:51.878Z,11.63
2023-02-24T01:47:38.623Z,6.28
2023-02-24T01:50:26.023Z,6.75
2023-02-24T01:53:12.234Z,10.52
2023-02-24T01:55:57.321Z,14.25
2023-02-24T01:58:43.467Z,6.97
2023-02-24T02:01:29.696Z,10.75
2023-02-24T02:04:35.653Z,10.13
2023-02-24T02:07:23.229Z,10.38
2023-02-24T02:10:09.472Z,14.82
2023-02-24T02:12:56.538Z,8.38
2023-02-24T02:15:52.483Z,11.65
2023-02-24T02:19:19.456Z,11.50
2023-02-24T02:22:38.477Z,12.90
2023-02-24T02:25:46.840Z,10.45
2023-02-24T02:29:02.035Z,10.88
2023-02-24T02:31:59.144Z,9.05
2023-02-24T02:34:57.299Z,6.60
2023-02-24T02:38:16.577Z,6.75
2023-02-24T02:41:11.565Z,9.07
2023-02-24T02:44:12.122Z,7.70
2023-02-24T02:47:12.269Z,7.03
2023-02-24T02:50:12.867Z,9.25
2023-02-24T02:53:03.248Z,12.68
2023-02-24T02:55:59.139Z,10.82
2023-02-24T02:58:48.907Z,6.10
2023-02-24T03:01:38.885Z,12.00
2023-02-24T03:04:27.023Z,9.38
2023-02-24T03:10:10.683Z,8.43
2023-02-24T03:13:02.342Z,7.50
2023-02-24T03:15:50.411Z,5.22
2023-02-24T03:18:40.625Z,9.25
2023-02-24T03:21:34.733Z,8.18
2023-02-24T03:24:20.994Z,4.43
2023-02-24T03:27:13.327Z,9.88
2023-02-24T03:30:07.584Z,5.00
2023-02-24T03:33:12.450Z,9.32
2023-02-24T03:36:02.037Z,4.95
2023-02-24T03:38:50.321Z,3.65
2023-02-24T03:41:44.154Z,10.73
2023-02-24T03:44:29.433Z,7.30
2023-02-24T03:47:17.634Z,4.75
2023-02-24T03:50:02.485Z,5.70
2023-02-24T03:53:31.248Z,3.55
2023-02-24T03:56:32.786Z,6.85
2023-02-24T03:59:52.740Z,5.78
2023-02-24T04:02:38.638Z,4.43
2023-02-24T04:05:27.469Z,9.65
2023-02-24T04:08:13.242Z,9.75
2023-02-24T04:11:10.244Z,5.70
2023-02-24T04:14:02.199Z,3.88
2023-02-24T04:17:10.104Z,4.45
2023-02-24T04:20:00.755Z,6.28
2023-02-24T04:22:49.369Z,3.88
2023-02-24T04:25:35.230Z,5.28
2023-02-24T04:28:23.118Z,5.80
2023-02-24T04:31:17.508Z,5.32
2023-02-24T04:34:02.255Z,6.03
2023-02-24T04:36:49.442Z,7.05
2023-02-24T04:39:38.289Z,9.07
2023-02-24T04:42:23.314Z,4.88
2023-02-24T04:45:13.169Z,9.93
2023-02-24T04:48:03.066Z,5.18
2023-02-24T04:50:55.826Z,4.60
2023-02-24T04:53:40.773Z,3.92
2023-02-24T04:56:25.606Z,5.20
2023-02-24T04:59:11.914Z,6.68
2023-02-24T05:02:01.681Z,6.82
2023-02-24T05:04:49.392Z,5.35
2023-02-24T05:07:34.497Z,8.43
2023-02-24T05:10:20.049Z,9.73
2023-02-24T05:13:08.968Z,5.35
2023-02-24T05:15:56.343Z,8.15
2023-02-24T05:18:42.532Z,5.63
2023-02-24T05:21:36.718Z,7.68
2023-02-24T05:24:21.827Z,5.35
2023-02-24T05:27:06.908Z,11.98
2023-02-24T05:29:53.367Z,7.65
2023-02-24T05:32:40.848Z,9.98
2023-02-24T05:35:27.443Z,8.30
2023-02-24T05:38:14.346Z,3.75
2023-02-24T05:41:17.531Z,7.07
2023-02-24T05:44:08.356Z,3.60
2023-02-24T05:46:59.895Z,5.38
2023-02-24T05:49:44.725Z,6.15
2023-02-24T05:52:29.703Z,3.28
2023-02-24T05:55:14.642Z,3.63
2023-02-24T05:58:00.108Z,5.47
2023-02-24T06:00:46.262Z,7.93
2023-02-24T06:03:35.401Z,6.43
2023-02-24T06:06:20.371Z,2.67
2023-02-24T06:09:12.506Z,3.97
2023-02-24T06:11:58.083Z,6.22
2023-02-24T06:14:44.908Z,5.07
2023-02-24T06:17:30.281Z,10.02
2023-02-24T06:20:15.823Z,5.30
2023-02-24T06:23:02.056Z,5.30
2023-02-24T06:25:47.292Z,3.45
2023-02-24T06:28:33.782Z,5.10
2023-02-24T06:31:18.870Z,7.43
2023-02-24T06:34:04.058Z,5.00
2023-02-24T06:36:49.050Z,6.50
2023-02-24T06:39:36.709Z,6.80
2023-02-24T06:42:22.101Z,5.35
2023-02-24T06:45:08.322Z,3.97
2023-02-24T06:47:53.349Z,4.72
2023-02-24T06:50:39.190Z,6.13
2023-02-24T06:53:26.589Z,3.15
2023-02-24T06:56:19.650Z,4.30
2023-02-24T06:59:07.789Z,3.50
2023-02-24T07:01:58.163Z,3.05
2023-02-24T07:04:43.800Z,4.10
2023-02-24T07:07:29.264Z,5.43
2023-02-24T07:10:14.444Z,8.25
2023-02-24T07:12:59.317Z,4.78
2023-02-24T07:15:49.442Z,4.57
2023-02-24T07:18:40.379Z,8.20
2023-02-24T07:21:28.087Z,4.18
2023-02-24T07:24:20.168Z,5.13
2023-02-24T07:27:07.278Z,6.53
2023-02-24T07:29:53.638Z,3.40
2023-02-24T07:32:40.323Z,2.20
2023-02-24T07:35:25.876Z,1.85
2023-02-24T07:38:10.602Z,8.23
2023-02-24T07:40:59.276Z,6.45
2023-02-24T07:43:44.125Z,7.28
2023-02-24T07:46:30.047Z,2.53
2023-02-24T07:49:20.953Z,1.75
2023-02-24T07:52:08.046Z,4.90
2023-02-24T07:54:54.995Z,5.45
2023-02-24T07:57:41.497Z,3.08
2023-02-24T08:00:28.534Z,2.22
2023-02-24T08:03:13.509Z,7.75
2023-02-24T08:06:13.249Z,3.30
2023-02-24T08:08:58.154Z,7.70
2023-02-24T08:11:46.011Z,5.00
2023-02-24T08:14:34.761Z,5.50
2023-02-24T08:17:24.330Z,4.88
2023-02-24T08:20:12.765Z,4.35
2023-02-24T08:22:58.843Z,5.93
2023-02-24T08:25:44.483Z,4.88
2023-02-24T08:28:30.582Z,5.28
2023-02-24T08:31:18.621Z,4.47
2023-02-24T08:34:04.175Z,5.35
2023-02-24T08:36:55.763Z,8.65
2023-02-24T08:39:40.717Z,5.10
2023-02-24T08:42:34.881Z,4.85
2023-02-24T08:45:19.969Z,3.03
2023-02-24T08:48:18.496Z,2.55
2023-02-24T08:51:15.225Z,4.05
2023-02-24T08:54:03.956Z,6.20
2023-02-24T08:56:49.351Z,4.07
2023-02-24T08:59:49.645Z,7.43
2023-02-24T09:02:40.739Z,2.20
2023-02-24T09:05:25.974Z,3.47
2023-02-24T09:08:11.255Z,3.90
2023-02-24T09:10:56.171Z,4.90
2023-02-24T09:13:51.865Z,3.50
2023-02-24T09:16:52.230Z,5.32
2023-02-24T09:22:40.535Z,3.45
2023-02-24T09:25:41.184Z,3.10
2023-02-24T09:28:27.459Z,5.68
2023-02-24T09:31:16.864Z,7.53
2023-02-24T09:34:04.391Z,5.95
2023-02-24T09:37:03.361Z,5.68
2023-02-24T09:39:54.855Z,3.80
2023-02-24T09:42:48.588Z,2.78
2023-02-24T09:45:34.012Z,4.22
2023-02-24T09:48:44.138Z,6.63
2023-02-24T09:51:30.291Z,4.25
2023-02-24T09:54:19.097Z,5.15
2023-02-24T09:57:16.885Z,6.32
2023-02-24T10:00:25.755Z,9.43
2023-02-24T10:03:29.934Z,7.22
2023-02-24T10:06:21.149Z,5.82
2023-02-24T10:09:14.358Z,8.02
2023-02-24T10:12:06.373Z,7.93
2023-02-24T10:15:19.145Z,4.60
2023-02-24T10:18:27.164Z,7.30
2023-02-24T10:22:00.889Z,5.15
2023-02-24T10:25:01.245Z,3.65
2023-02-24T10:28:00.902Z,4.45
2023-02-24T10:31:10.673Z,5.70
2023-02-24T10:34:00.484Z,5.47
2023-02-24T10:36:50.537Z,4.15
2023-02-24T10:39:35.577Z,6.63
2023-02-24T10:42:32.556Z,9.02
2023-02-24T10:45:25.904Z,4.07
2023-02-24T10:48:40.344Z,5.20
2023-02-24T10:51:41.246Z,7.70
2023-02-24T10:54:44.604Z,7.72
2023-02-24T10:57:47.453Z,7.65
2023-02-24T11:01:09.192Z,4.00
2023-02-24T11:04:23.633Z,11.23
2023-02-24T11:07:24.588Z,7.40
2023-02-24T11:10:13.516Z,8.82
2023-02-24T11:13:19.998Z,5.72
2023-02-24T11:16:27.118Z,7.22
2023-02-24T11:19:12.237Z,8.57
2023-02-24T11:21:58.432Z,5.85
2023-02-24T11:24:47.419Z,6.50
2023-02-24T11:27:32.940Z,5.15
2023-02-24T11:30:50.776Z,16.25
2023-02-24T11:33:50.547Z,6.82
2023-02-24T11:37:09.580Z,7.47
2023-02-24T11:40:05.327Z,4.97
2023-02-24T11:42:56.849Z,10.45
2023-02-24T11:45:51.085Z,6.57
2023-02-24T11:48:45.488Z,6.32
2023-02-24T11:51:35.514Z,7.72
2023-02-24T11:54:21.540Z,6.35
2023-02-24T12:00:21.130Z,7.88
2023-02-24T12:03:29.668Z,7.75
2023-02-24T12:06:38.169Z,8.63
2023-02-24T12:09:30.337Z,7.35
2023-02-24T12:12:25.466Z,7.75
2023-02-24T12:15:19.111Z,5.45
2023-02-24T12:18:26.567Z,8.00
2023-02-24T12:21:19.313Z,7.32
2023-02-24T12:24:08.821Z,7.03
2023-02-24T12:27:42.253Z,5.40
2023-02-24T12:31:03.564Z,6.97
2023-02-24T12:34:11.977Z,4.40
2023-02-24T12:37:17.918Z,5.80
2023-02-24T12:40:23.902Z,5.35
2023-02-24T12:43:11.642Z,6.90
2023-02-24T12:49:21.725Z,6.75
2023-02-24T12:55:06.092Z,5.97
2023-02-24T12:58:07.126Z,4.82
2023-02-24T13:01:13.203Z,5.70
2023-02-24T13:04:17.329Z,6.78
2023-02-24T13:07:24.318Z,7.13
2023-02-24T13:10:30.688Z,4.50
2023-02-24T13:13:21.579Z,5.30
2023-02-24T13:16:06.504Z,6.40
2023-02-24T13:18:52.603Z,5.57
2023-02-24T13:21:39.865Z,5.40
2023-02-24T13:24:26.186Z,5.80
2023-02-24T13:27:17.466Z,4.45
2023-02-24T13:30:12.058Z,4.88
2023-02-24T13:36:17.335Z,5.95
2023-02-24T13:39:02.156Z,5.82
2023-02-24T13:41:46.896Z,7.57
2023-02-24T13:44:31.937Z,5.70
2023-02-24T13:47:47.574Z,8.13
2023-02-24T13:51:05.699Z,6.60
2023-02-24T13:54:07.630Z,4.25
2023-02-24T13:57:01.765Z,6.03
2023-02-24T14:00:11.224Z,4.63
2023-02-24T14:02:57.393Z,4.20
2023-02-24T14:05:43.581Z,5.18
2023-02-24T14:08:37.056Z,4.63
2023-02-24T14:11:26.820Z,8.48
2023-02-24T14:14:18.703Z,6.05
2023-02-24T14:17:03.675Z,5.75
2023-02-24T14:19:48.633Z,5.57
2023-02-24T14:22:34.568Z,7.07
2023-02-24T14:25:21.926Z,5.78
2023-02-24T14:28:14.400Z,7.07
2023-02-24T14:31:09.537Z,6.55
2023-02-24T14:34:00.458Z,6.80
2023-02-24T14:36:46.080Z,6.15
2023-02-24T14:39:34.443Z,9.60
2023-02-24T14:42:20.929Z,10.98
2023-02-24T14:45:19.133Z,9.75
2023-02-24T14:48:07.410Z,8.05
2023-02-24T14:50:56.134Z,13.13
2023-02-24T14:53:49.607Z,10.50
2023-02-24T14:56:36.881Z,11.05
2023-02-24T15:02:37.690Z,10.45
2023-02-24T15:05:23.331Z,13.77
2023-02-24T15:08:32.044Z,8.95
2023-02-24T15:11:22.818Z,9.82
2023-02-24T15:14:20.871Z,7.88
2023-02-24T15:17:17.846Z,7.38
2023-02-24T15:20:09.031Z,10.57
2023-02-24T15:22:54.346Z,20.33
2023-02-24T15:25:45.880Z,10.50
2023-02-24T15:28:34.304Z,9.13
2023-02-24T15:31:23.407Z,8.23
2023-02-24T15:34:20.867Z,11.07
2023-02-24T15:37:22.029Z,9.45
2023-02-24T15:40:21.045Z,8.77
2023-02-24T15:43:11.743Z,8.75
2023-02-24T15:45:57.370Z,11.95
2023-02-24T15:48:44.760Z,9.82
2023-02-24T15:51:38.578Z,8.45
2023-02-24T15:54:29.364Z,12.30
2023-02-24T15:57:17.013Z,11.18
2023-02-24T16:00:10.384Z,11.25
2023-02-24T16:02:55.533Z,11.63
2023-02-24T16:05:41.050Z,10.18
2023-02-24T16:08:26.341Z,15.02
2023-02-24T16:11:13.321Z,10.30
2023-02-24T16:13:59.760Z,10.25
2023-02-24T16:16:45.445Z,12.02
2023-02-24T16:19:30.452Z,11.75
2023-02-24T16:22:15.735Z,13.95
2023-02-24T16:25:02.828Z,12.32
2023-02-24T16:27:48.388Z,10.55
2023-02-24T16:30:35.264Z,12.60
2023-02-24T16:33:23.417Z,15.23
2023-02-24T16:36:11.736Z,14.70
2023-02-24T16:38:58.729Z,13.80
2023-02-24T16:41:43.833Z,14.05
2023-02-24T16:44:30.681Z,13.02
2023-02-24T16:47:24.384Z,15.50
2023-02-24T16:50:18.921Z,18.75
2023-02-24T16:53:13.606Z,12.95
2023-02-24T16:56:00.220Z,20.25
2023-02-24T16:58:45.684Z,20.27
2023-02-24T17:01:31.293Z,20.10
2023-02-24T17:04:16.216Z,13.27
2023-02-24T17:07:01.397Z,11.73
2023-02-24T17:09:47.293Z,15.32
2023-02-24T17:12:32.417Z,13.95
2023-02-24T17:15:23.708Z,12.20
2023-02-24T17:18:10.592Z,13.75
2023-02-24T17:20:56.021Z,15.10
2023-02-24T17:23:42.594Z,14.93
2023-02-24T17:26:28.134Z,14.60
2023-02-24T17:29:16.257Z,15.70
2023-02-24T17:32:03.771Z,11.45
2023-02-24T17:34:48.982Z,13.18
2023-02-24T17:37:34.568Z,16.50
2023-02-24T17:40:20.512Z,14.25
2023-02-24T17:43:07.910Z,14.82
2023-02-24T17:45:53.615Z,16.00
2023-02-24T17:48:38.951Z,17.73
2023-02-24T17:51:26.340Z,15.43
2023-02-24T17:54:12.264Z,17.20
2023-02-24T17:56:57.493Z,21.13
2023-02-24T17:59:43.560Z,17.40
2023-02-24T18:02:28.822Z,15.75
2023-02-24T18:05:14.365Z,15.65
2023-02-24T18:08:00.626Z,14.93
2023-02-24T18:10:46.152Z,18.38
2023-02-24T18:13:32.227Z,15.27
2023-02-24T18:16:17.943Z,16.05
2023-02-24T18:19:03.313Z,16.30
2023-02-24T18:21:49.431Z,17.48
2023-02-24T18:24:36.801Z,13.23
2023-02-24T18:27:23.972Z,13.20
2023-02-24T18:30:10.058Z,15.98
2023-02-24T18:32:56.255Z,17.95
2023-02-24T18:35:41.184Z,12.27
2023-02-24T18:38:27.699Z,14.23
2023-02-24T18:41:17.198Z,12.98
2023-02-24T18:44:03.051Z,13.57
2023-02-24T18:46:47.881Z,13.07
2023-02-24T18:49:33.152Z,16.02
2023-02-24T18:52:18.016Z,14.75
2023-02-24T18:55:03.412Z,12.50
2023-02-24T18:57:48.826Z,11.77
2023-02-24T19:00:34.546Z,9.93
2023-02-24T19:03:21.029Z,12.45
2023-02-24T19:06:06.546Z,13.18
2023-02-24T19:09:14.073Z,10.75
2023-02-24T19:11:59.319Z,14.43
2023-02-24T19:14:44.981Z,8.40
2023-02-24T19:17:30.356Z,10.15
2023-02-24T19:20:19.157Z,10.48
2023-02-24T19:23:06.000Z,9.10
2023-02-24T19:25:51.505Z,11.27
2023-02-24T19:28:36.436Z,9.90
2023-02-24T19:31:25.151Z,10.07
2023-02-24T19:34:12.834Z,8.30
2023-02-24T19:36:58.336Z,9.15
2023-02-24T19:39:48.178Z,7.97
2023-02-24T19:42:37.846Z,10.43
2023-02-24T19:45:25.444Z,6.78
2023-02-24T19:48:11.736Z,11.75
2023-02-24T19:50:56.496Z,6.95
2023-02-24T19:53:42.449Z,9.20
2023-02-24T19:56:30.293Z,6.18
2023-02-24T20:02:04.156Z,7.70
2023-02-24T20:04:49.582Z,6.55
2023-02-24T20:07:35.053Z,7.60
2023-02-24T20:10:19.882Z,7.57
2023-02-24T20:13:10.554Z,9.45
2023-02-24T20:16:10.438Z,12.65
2023-02-24T20:18:56.087Z,10.80
2023-02-24T20:21:44.589Z,10.23
2023-02-24T20:24:31.051Z,15.05
2023-02-24T20:27:18.786Z,15.07
2023-02-24T20:30:04.725Z,10.48
2023-02-24T20:32:50.440Z,12.93
2023-02-24T20:35:40.192Z,8.88
2023-02-24T20:38:27.194Z,13.18
2023-02-24T20:41:12.999Z,13.30
2023-02-24T20:44:01.018Z,10.27
2023-02-24T20:46:47.167Z,15.35
2023-02-24T20:49:33.838Z,13.07
2023-02-24T20:52:21.890Z,12.40
2023-02-24T20:55:07.139Z,7.82
2023-02-24T20:57:52.681Z,9.32
2023-02-24T21:00:41.448Z,8.98
2023-02-24T21:03:29.693Z,13.43
2023-02-24T21:06:16.948Z,17.10
2023-02-24T21:09:03.076Z,12.80
2023-02-24T21:11:49.095Z,8.02
2023-02-24T21:17:46.713Z,20.73
2023-02-24T21:20:32.660Z,11.50
2023-02-24T21:23:20.777Z,15.43
2023-02-24T21:26:07.412Z,10.85
2023-02-24T21:28:58.165Z,15.02
2023-02-24T21:31:44.160Z,9.15
2023-02-24T21:34:30.480Z,12.73
2023-02-24T21:37:18.550Z,10.15
2023-02-24T21:40:10.997Z,10.10
2023-02-24T21:42:59.049Z,14.40
2023-02-24T21:45:45.621Z,13.02
2023-02-24T21:48:32.065Z,11.15
2023-02-24T21:51:17.416Z,10.60
2023-02-24T21:54:02.234Z,8.15
2023-02-24T21:56:47.721Z,9.48
2023-02-24T21:59:32.647Z,6.38
2023-02-24T22:02:17.804Z,9.23
2023-02-24T22:05:06.465Z,7.40
2023-02-24T22:07:52.480Z,8.50
2023-02-24T22:10:37.441Z,13.13
2023-02-24T22:13:22.266Z,10.18
2023-02-24T22:16:10.096Z,11.85
2023-02-24T22:21:42.747Z,10.68
2023-02-24T22:24:27.527Z,13.30
2023-02-24T22:27:12.708Z,13.82
2023-02-24T22:29:57.618Z,14.68
2023-02-24T22:32:42.882Z,12.68
2023-02-24T22:35:27.877Z,11.30
2023-02-24T22:38:13.135Z,9.68
2023-02-24T22:40:59.939Z,11.77
2023-02-24T22:43:45.185Z,14.90
2023-02-24T22:46:33.758Z,9.15
2023-02-24T22:49:19.995Z,9.35
2023-02-24T22:52:04.908Z,18.80
2023-02-24T22:54:52.518Z,14.93
2023-02-24T22:57:37.621Z,16.77
2023-02-24T23:00:22.701Z,14.07
2023-02-24T23:03:08.729Z,17.55
2023-02-24T23:06:15.826Z,14.57
2023-02-24T23:09:01.798Z,15.68
2023-02-24T23:11:47.390Z,11.68
2023-02-24T23:14:32.769Z,15.80
2023-02-24T23:17:17.944Z,12.25
2023-02-24T23:20:05.985Z,9.98
2023-02-24T23:22:53.198Z,14.77
2023-02-24T23:25:39.023Z,13.13
2023-02-24T23:28:26.921Z,11.32
2023-02-24T23:31:17.868Z,10.75
2023-02-24T23:34:07.455Z,13.07
2023-02-24T23:36:52.468Z,10.20
2023-02-24T23:39:37.377Z,15.63
2023-02-24T23:42:22.644Z,11.98
2023-02-24T23:45:09.260Z,14.43
2023-02-24T23:47:54.343Z,10.60
2023-02-24T23:50:40.992Z,9.52
2023-02-24T23:53:26.216Z,11.63
2023-02-24T23:56:16.062Z,13.00
2023-02-24T23:59:01.611Z,11.10
